sensor_id;sensor_type;location;lat;lon;timestamp;P1;durP1;ratioP1;P2;durP2;ratioP2
3815;SDS011;1923;48.154;11.536;2022-09-24T00:02:09;12.17;;;5.50;;
3815;SDS011;1923;48.154;11.536;2022-09-24T00:04:38;8.73;;;5.07;;
3815;SDS011;1923;48.154;11.536;2022-09-24T00:07:06;7.80;;;4.67;;
3815;SDS011;1923;48.154;11.536;2022-09-24T00:09:34;7.30;;;5.37;;
3815;SDS011;1923;48.154;11.536;2022-09-24T00:12:02;8.57;;;5.50;;
3815;SDS011;1923;48.154;11.536;2022-09-24T00:14:30;7.17;;;4.63;;
3815;SDS011;1923;48.154;11.536;2022-09-24T00:16:58;10.97;;;5.83;;
3815;SDS011;1923;48.154;11.536;2022-09-24T00:19:26;9.27;;;5.90;;
3815;SDS011;1923;48.154;11.536;2022-09-24T00:21:57;10.10;;;5.20;;
3815;SDS011;1923;48.154;11.536;2022-09-24T00:24:25;7.80;;;5.97;;
3815;SDS011;1923;48.154;11.536;2022-09-24T00:27:10;7.30;;;5.07;;
3815;SDS011;1923;48.154;11.536;2022-09-24T00:29:38;8.10;;;5.47;;
3815;SDS011;1923;48.154;11.536;2022-09-24T00:32:06;7.67;;;5.30;;
3815;SDS011;1923;48.154;11.536;2022-09-24T00:34:35;7.30;;;5.30;;
3815;SDS011;1923;48.154;11.536;2022-09-24T00:37:04;7.80;;;4.57;;
3815;SDS011;1923;48.154;11.536;2022-09-24T00:39:32;9.43;;;5.37;;
3815;SDS011;1923;48.154;11.536;2022-09-24T00:42:00;7.13;;;4.00;;
3815;SDS011;1923;48.154;11.536;2022-09-24T00:44:42;7.17;;;4.93;;
3815;SDS011;1923;48.154;11.536;2022-09-24T00:47:18;7.57;;;5.50;;
3815;SDS011;1923;48.154;11.536;2022-09-24T00:49:57;6.43;;;4.43;;
3815;SDS011;1923;48.154;11.536;2022-09-24T00:52:43;8.33;;;4.70;;
3815;SDS011;1923;48.154;11.536;2022-09-24T00:55:16;6.80;;;5.10;;
3815;SDS011;1923;48.154;11.536;2022-09-24T00:57:46;7.13;;;4.40;;
3815;SDS011;1923;48.154;11.536;2022-09-24T01:00:15;6.67;;;3.97;;
3815;SDS011;1923;48.154;11.536;2022-09-24T01:02:45;5.90;;;4.60;;
3815;SDS011;1923;48.154;11.536;2022-09-24T01:05:15;7.47;;;5.10;;
3815;SDS011;1923;48.154;11.536;2022-09-24T01:07:46;6.10;;;4.10;;
3815;SDS011;1923;48.154;11.536;2022-09-24T01:10:14;7.57;;;4.50;;
3815;SDS011;1923;48.154;11.536;2022-09-24T01:13:08;9.13;;;4.00;;
3815;SDS011;1923;48.154;11.536;2022-09-24T01:15:48;8.47;;;4.43;;
3815;SDS011;1923;48.154;11.536;2022-09-24T01:18:23;7.07;;;5.20;;
3815;SDS011;1923;48.154;11.536;2022-09-24T01:21:07;5.00;;;4.50;;
3815;SDS011;1923;48.154;11.536;2022-09-24T01:26:50;6.67;;;3.67;;
3815;SDS011;1923;48.154;11.536;2022-09-24T01:29:29;5.17;;;3.67;;
3815;SDS011;1923;48.154;11.536;2022-09-24T01:32:07;7.13;;;3.90;;
3815;SDS011;1923;48.154;11.536;2022-09-24T01:34:44;6.70;;;4.30;;
3815;SDS011;1923;48.154;11.536;2022-09-24T01:37:16;4.53;;;3.90;;
3815;SDS011;1923;48.154;11.536;2022-09-24T01:39:47;7.10;;;4.37;;
3815;SDS011;1923;48.154;11.536;2022-09-24T01:42:18;9.43;;;4.30;;
3815;SDS011;1923;48.154;11.536;2022-09-24T01:44:49;6.90;;;4.70;;
3815;SDS011;1923;48.154;11.536;2022-09-24T01:47:19;5.30;;;3.20;;
3815;SDS011;1923;48.154;11.536;2022-09-24T01:49:58;6.43;;;4.00;;
3815;SDS011;1923;48.154;11.536;2022-09-24T01:52:28;5.77;;;3.83;;
3815;SDS011;1923;48.154;11.536;2022-09-24T01:55:00;6.20;;;4.27;;
3815;SDS011;1923;48.154;11.536;2022-09-24T01:57:33;4.73;;;3.60;;
3815;SDS011;1923;48.154;11.536;2022-09-24T02:00:08;4.97;;;3.47;;
3815;SDS011;1923;48.154;11.536;2022-09-24T02:02:38;5.93;;;3.50;;
3815;SDS011;1923;48.154;11.536;2022-09-24T02:05:13;8.53;;;3.60;;
3815;SDS011;1923;48.154;11.536;2022-09-24T02:07:47;4.80;;;2.93;;
3815;SDS011;1923;48.154;11.536;2022-09-24T02:10:23;3.00;;;2.70;;
3815;SDS011;1923;48.154;11.536;2022-09-24T02:12:55;4.37;;;3.10;;
3815;SDS011;1923;48.154;11.536;2022-09-24T02:15:30;5.07;;;3.73;;
3815;SDS011;1923;48.154;11.536;2022-09-24T02:18:02;4.73;;;3.30;;
3815;SDS011;1923;48.154;11.536;2022-09-24T02:20:34;8.93;;;3.33;;
3815;SDS011;1923;48.154;11.536;2022-09-24T02:23:04;4.00;;;3.13;;
3815;SDS011;1923;48.154;11.536;2022-09-24T02:25:37;4.90;;;3.60;;
3815;SDS011;1923;48.154;11.536;2022-09-24T02:28:08;3.83;;;2.47;;
3815;SDS011;1923;48.154;11.536;2022-09-24T02:30:39;3.20;;;2.90;;
3815;SDS011;1923;48.154;11.536;2022-09-24T02:33:10;5.30;;;3.40;;
3815;SDS011;1923;48.154;11.536;2022-09-24T02:35:54;4.53;;;2.83;;
3815;SDS011;1923;48.154;11.536;2022-09-24T02:38:22;7.30;;;3.70;;
3815;SDS011;1923;48.154;11.536;2022-09-24T02:40:50;4.60;;;3.00;;
3815;SDS011;1923;48.154;11.536;2022-09-24T02:43:19;5.63;;;3.40;;
3815;SDS011;1923;48.154;11.536;2022-09-24T02:45:48;4.90;;;3.47;;
3815;SDS011;1923;48.154;11.536;2022-09-24T02:48:16;5.10;;;3.30;;
3815;SDS011;1923;48.154;11.536;2022-09-24T02:50:44;3.80;;;3.20;;
3815;SDS011;1923;48.154;11.536;2022-09-24T02:53:12;6.53;;;3.57;;
3815;SDS011;1923;48.154;11.536;2022-09-24T02:55:40;4.63;;;3.23;;
3815;SDS011;1923;48.154;11.536;2022-09-24T02:58:08;4.17;;;3.03;;
3815;SDS011;1923;48.154;11.536;2022-09-24T03:00:36;4.07;;;3.40;;
3815;SDS011;1923;48.154;11.536;2022-09-24T03:03:06;4.27;;;3.00;;
3815;SDS011;1923;48.154;11.536;2022-09-24T03:05:34;7.20;;;3.00;;
3815;SDS011;1923;48.154;11.536;2022-09-24T03:08:02;4.77;;;3.10;;
3815;SDS011;1923;48.154;11.536;2022-09-24T03:10:32;6.33;;;3.10;;
3815;SDS011;1923;48.154;11.536;2022-09-24T03:13:01;4.40;;;3.27;;
3815;SDS011;1923;48.154;11.536;2022-09-24T03:15:29;3.40;;;3.10;;
3815;SDS011;1923;48.154;11.536;2022-09-24T03:17:57;3.40;;;2.83;;
3815;SDS011;1923;48.154;11.536;2022-09-24T03:20:26;3.40;;;2.97;;
3815;SDS011;1923;48.154;11.536;2022-09-24T03:22:54;3.77;;;2.67;;
3815;SDS011;1923;48.154;11.536;2022-09-24T03:25:22;4.20;;;3.23;;
3815;SDS011;1923;48.154;11.536;2022-09-24T03:27:50;5.07;;;3.20;;
3815;SDS011;1923;48.154;11.536;2022-09-24T03:30:18;4.37;;;3.40;;
3815;SDS011;1923;48.154;11.536;2022-09-24T03:33:03;6.40;;;3.30;;
3815;SDS011;1923;48.154;11.536;2022-09-24T03:35:33;4.00;;;3.00;;
3815;SDS011;1923;48.154;11.536;2022-09-24T03:38:01;3.70;;;3.03;;
3815;SDS011;1923;48.154;11.536;2022-09-24T03:40:29;3.30;;;3.03;;
3815;SDS011;1923;48.154;11.536;2022-09-24T03:42:57;4.37;;;3.60;;
3815;SDS011;1923;48.154;11.536;2022-09-24T03:45:25;5.20;;;3.40;;
3815;SDS011;1923;48.154;11.536;2022-09-24T03:47:53;3.37;;;2.80;;
3815;SDS011;1923;48.154;11.536;2022-09-24T03:50:21;3.40;;;2.90;;
3815;SDS011;1923;48.154;11.536;2022-09-24T03:52:50;3.60;;;3.13;;
3815;SDS011;1923;48.154;11.536;2022-09-24T03:55:18;3.60;;;3.00;;
3815;SDS011;1923;48.154;11.536;2022-09-24T03:57:46;5.60;;;3.57;;
3815;SDS011;1923;48.154;11.536;2022-09-24T04:00:14;5.03;;;3.43;;
3815;SDS011;1923;48.154;11.536;2022-09-24T04:02:42;5.90;;;2.97;;
3815;SDS011;1923;48.154;11.536;2022-09-24T04:05:10;3.97;;;3.00;;
3815;SDS011;1923;48.154;11.536;2022-09-24T04:07:38;7.17;;;3.93;;
3815;SDS011;1923;48.154;11.536;2022-09-24T04:10:09;5.73;;;2.87;;
3815;SDS011;1923;48.154;11.536;2022-09-24T04:12:37;4.87;;;3.30;;
3815;SDS011;1923;48.154;11.536;2022-09-24T04:15:05;5.93;;;3.20;;
3815;SDS011;1923;48.154;11.536;2022-09-24T04:17:34;4.83;;;3.10;;
3815;SDS011;1923;48.154;11.536;2022-09-24T04:20:02;3.57;;;3.17;;
3815;SDS011;1923;48.154;11.536;2022-09-24T04:22:30;4.07;;;3.67;;
3815;SDS011;1923;48.154;11.536;2022-09-24T04:24:58;5.33;;;3.40;;
3815;SDS011;1923;48.154;11.536;2022-09-24T04:27:27;4.00;;;3.07;;
3815;SDS011;1923;48.154;11.536;2022-09-24T04:29:56;4.33;;;3.13;;
3815;SDS011;1923;48.154;11.536;2022-09-24T04:32:24;4.63;;;3.43;;
3815;SDS011;1923;48.154;11.536;2022-09-24T04:34:52;4.50;;;3.57;;
3815;SDS011;1923;48.154;11.536;2022-09-24T04:37:20;4.00;;;3.30;;
3815;SDS011;1923;48.154;11.536;2022-09-24T04:39:48;3.47;;;3.17;;
3815;SDS011;1923;48.154;11.536;2022-09-24T04:42:16;5.47;;;2.97;;
3815;SDS011;1923;48.154;11.536;2022-09-24T04:44:46;3.87;;;2.80;;
3815;SDS011;1923;48.154;11.536;2022-09-24T04:47:20;6.50;;;3.07;;
3815;SDS011;1923;48.154;11.536;2022-09-24T04:49:50;6.07;;;3.40;;
3815;SDS011;1923;48.154;11.536;2022-09-24T04:52:18;4.13;;;3.00;;
3815;SDS011;1923;48.154;11.536;2022-09-24T04:54:50;4.60;;;2.97;;
3815;SDS011;1923;48.154;11.536;2022-09-24T04:57:18;4.77;;;3.10;;
3815;SDS011;1923;48.154;11.536;2022-09-24T04:59:48;7.83;;;3.33;;
3815;SDS011;1923;48.154;11.536;2022-09-24T05:02:16;4.17;;;2.73;;
3815;SDS011;1923;48.154;11.536;2022-09-24T05:04:44;5.20;;;3.57;;
3815;SDS011;1923;48.154;11.536;2022-09-24T05:07:12;3.43;;;2.60;;
3815;SDS011;1923;48.154;11.536;2022-09-24T05:09:40;3.43;;;2.73;;
3815;SDS011;1923;48.154;11.536;2022-09-24T05:12:08;5.23;;;3.70;;
3815;SDS011;1923;48.154;11.536;2022-09-24T05:14:36;3.40;;;2.77;;
3815;SDS011;1923;48.154;11.536;2022-09-24T05:17:05;5.53;;;3.20;;
3815;SDS011;1923;48.154;11.536;2022-09-24T05:19:33;6.13;;;3.50;;
3815;SDS011;1923;48.154;11.536;2022-09-24T05:22:01;5.27;;;3.30;;
3815;SDS011;1923;48.154;11.536;2022-09-24T05:24:29;4.20;;;3.03;;
3815;SDS011;1923;48.154;11.536;2022-09-24T05:26:57;5.77;;;2.63;;
3815;SDS011;1923;48.154;11.536;2022-09-24T05:29:37;4.20;;;3.30;;
3815;SDS011;1923;48.154;11.536;2022-09-24T05:32:08;7.23;;;3.17;;
3815;SDS011;1923;48.154;11.536;2022-09-24T05:34:37;4.10;;;3.20;;
3815;SDS011;1923;48.154;11.536;2022-09-24T05:37:06;8.57;;;3.30;;
3815;SDS011;1923;48.154;11.536;2022-09-24T05:39:34;6.23;;;3.53;;
3815;SDS011;1923;48.154;11.536;2022-09-24T05:42:02;5.17;;;3.63;;
3815;SDS011;1923;48.154;11.536;2022-09-24T05:44:30;5.67;;;3.60;;
3815;SDS011;1923;48.154;11.536;2022-09-24T05:46:58;6.73;;;3.50;;
3815;SDS011;1923;48.154;11.536;2022-09-24T05:49:28;5.53;;;3.37;;
3815;SDS011;1923;48.154;11.536;2022-09-24T05:51:55;4.90;;;3.20;;
3815;SDS011;1923;48.154;11.536;2022-09-24T05:54:24;6.47;;;3.67;;
3815;SDS011;1923;48.154;11.536;2022-09-24T05:56:52;4.30;;;3.20;;
3815;SDS011;1923;48.154;11.536;2022-09-24T05:59:20;4.67;;;3.07;;
3815;SDS011;1923;48.154;11.536;2022-09-24T06:01:48;5.20;;;2.90;;
3815;SDS011;1923;48.154;11.536;2022-09-24T06:04:17;3.80;;;2.90;;
3815;SDS011;1923;48.154;11.536;2022-09-24T06:06:46;5.57;;;3.20;;
3815;SDS011;1923;48.154;11.536;2022-09-24T06:09:15;3.53;;;2.97;;
3815;SDS011;1923;48.154;11.536;2022-09-24T06:11:43;4.97;;;2.90;;
3815;SDS011;1923;48.154;11.536;2022-09-24T06:14:11;4.90;;;3.80;;
3815;SDS011;1923;48.154;11.536;2022-09-24T06:16:40;5.40;;;3.27;;
3815;SDS011;1923;48.154;11.536;2022-09-24T06:19:08;3.03;;;2.70;;
3815;SDS011;1923;48.154;11.536;2022-09-24T06:21:36;4.40;;;3.00;;
3815;SDS011;1923;48.154;11.536;2022-09-24T06:24:05;4.20;;;2.80;;
3815;SDS011;1923;48.154;11.536;2022-09-24T06:26:33;4.37;;;3.57;;
3815;SDS011;1923;48.154;11.536;2022-09-24T06:29:02;4.43;;;3.20;;
3815;SDS011;1923;48.154;11.536;2022-09-24T06:31:30;6.13;;;4.03;;
3815;SDS011;1923;48.154;11.536;2022-09-24T06:34:00;6.60;;;3.77;;
3815;SDS011;1923;48.154;11.536;2022-09-24T06:36:29;5.30;;;3.43;;
3815;SDS011;1923;48.154;11.536;2022-09-24T06:38:56;3.57;;;2.90;;
3815;SDS011;1923;48.154;11.536;2022-09-24T06:41:26;4.83;;;2.80;;
3815;SDS011;1923;48.154;11.536;2022-09-24T06:43:54;4.20;;;2.80;;
3815;SDS011;1923;48.154;11.536;2022-09-24T06:46:22;4.03;;;3.17;;
3815;SDS011;1923;48.154;11.536;2022-09-24T06:48:51;3.40;;;2.70;;
3815;SDS011;1923;48.154;11.536;2022-09-24T06:51:20;4.37;;;2.43;;
3815;SDS011;1923;48.154;11.536;2022-09-24T06:53:49;4.07;;;2.60;;
3815;SDS011;1923;48.154;11.536;2022-09-24T06:56:17;2.70;;;2.40;;
3815;SDS011;1923;48.154;11.536;2022-09-24T06:58:47;3.63;;;2.80;;
3815;SDS011;1923;48.154;11.536;2022-09-24T07:01:14;7.73;;;3.77;;
3815;SDS011;1923;48.154;11.536;2022-09-24T07:03:42;4.37;;;2.90;;
3815;SDS011;1923;48.154;11.536;2022-09-24T07:06:10;4.33;;;2.57;;
3815;SDS011;1923;48.154;11.536;2022-09-24T07:08:38;3.30;;;2.53;;
3815;SDS011;1923;48.154;11.536;2022-09-24T07:11:06;8.20;;;2.97;;
3815;SDS011;1923;48.154;11.536;2022-09-24T07:13:34;4.70;;;2.67;;
3815;SDS011;1923;48.154;11.536;2022-09-24T07:16:04;3.87;;;2.87;;
3815;SDS011;1923;48.154;11.536;2022-09-24T07:18:32;6.73;;;3.10;;
3815;SDS011;1923;48.154;11.536;2022-09-24T07:21:00;4.27;;;3.03;;
3815;SDS011;1923;48.154;11.536;2022-09-24T07:23:28;5.13;;;3.13;;
3815;SDS011;1923;48.154;11.536;2022-09-24T07:25:56;3.23;;;2.80;;
3815;SDS011;1923;48.154;11.536;2022-09-24T07:28:24;3.60;;;2.90;;
3815;SDS011;1923;48.154;11.536;2022-09-24T07:30:56;4.37;;;2.80;;
3815;SDS011;1923;48.154;11.536;2022-09-24T07:33:27;3.80;;;2.63;;
3815;SDS011;1923;48.154;11.536;2022-09-24T07:35:57;4.37;;;2.73;;
3815;SDS011;1923;48.154;11.536;2022-09-24T07:38:25;5.80;;;2.73;;
3815;SDS011;1923;48.154;11.536;2022-09-24T07:40:55;3.00;;;2.50;;
3815;SDS011;1923;48.154;11.536;2022-09-24T07:43:24;3.37;;;2.37;;
3815;SDS011;1923;48.154;11.536;2022-09-24T07:45:53;7.27;;;3.23;;
3815;SDS011;1923;48.154;11.536;2022-09-24T07:48:22;2.80;;;2.07;;
3815;SDS011;1923;48.154;11.536;2022-09-24T07:50:51;4.20;;;2.73;;
3815;SDS011;1923;48.154;11.536;2022-09-24T07:53:19;4.90;;;3.53;;
3815;SDS011;1923;48.154;11.536;2022-09-24T07:55:48;3.73;;;2.93;;
3815;SDS011;1923;48.154;11.536;2022-09-24T07:58:17;5.57;;;2.80;;
3815;SDS011;1923;48.154;11.536;2022-09-24T08:00:45;6.57;;;3.90;;
3815;SDS011;1923;48.154;11.536;2022-09-24T08:03:13;7.27;;;3.20;;
3815;SDS011;1923;48.154;11.536;2022-09-24T08:05:42;4.40;;;3.33;;
3815;SDS011;1923;48.154;11.536;2022-09-24T08:08:12;4.30;;;3.20;;
3815;SDS011;1923;48.154;11.536;2022-09-24T08:10:41;3.90;;;2.80;;
3815;SDS011;1923;48.154;11.536;2022-09-24T08:13:09;7.33;;;3.60;;
3815;SDS011;1923;48.154;11.536;2022-09-24T08:15:37;6.80;;;3.30;;
3815;SDS011;1923;48.154;11.536;2022-09-24T08:18:05;4.10;;;2.83;;
3815;SDS011;1923;48.154;11.536;2022-09-24T08:20:35;4.67;;;3.60;;
3815;SDS011;1923;48.154;11.536;2022-09-24T08:23:04;5.87;;;4.10;;
3815;SDS011;1923;48.154;11.536;2022-09-24T08:25:36;5.50;;;3.43;;
3815;SDS011;1923;48.154;11.536;2022-09-24T08:28:04;8.47;;;3.80;;
3815;SDS011;1923;48.154;11.536;2022-09-24T08:30:33;6.07;;;4.37;;
3815;SDS011;1923;48.154;11.536;2022-09-24T08:33:02;7.17;;;3.90;;
3815;SDS011;1923;48.154;11.536;2022-09-24T08:35:32;6.77;;;4.07;;
3815;SDS011;1923;48.154;11.536;2022-09-24T08:38:00;7.10;;;4.57;;
3815;SDS011;1923;48.154;11.536;2022-09-24T08:40:30;7.47;;;4.30;;
3815;SDS011;1923;48.154;11.536;2022-09-24T08:43:08;6.90;;;4.27;;
3815;SDS011;1923;48.154;11.536;2022-09-24T08:45:45;6.77;;;3.83;;
3815;SDS011;1923;48.154;11.536;2022-09-24T08:48:36;9.43;;;4.27;;
3815;SDS011;1923;48.154;11.536;2022-09-24T08:51:10;6.47;;;4.27;;
3815;SDS011;1923;48.154;11.536;2022-09-24T08:53:44;5.33;;;4.17;;
3815;SDS011;1923;48.154;11.536;2022-09-24T08:56:16;5.80;;;3.63;;
3815;SDS011;1923;48.154;11.536;2022-09-24T08:58:49;5.60;;;3.90;;
3815;SDS011;1923;48.154;11.536;2022-09-24T09:01:24;5.17;;;3.60;;
3815;SDS011;1923;48.154;11.536;2022-09-24T09:03:59;8.10;;;4.30;;
3815;SDS011;1923;48.154;11.536;2022-09-24T09:06:41;6.20;;;3.97;;
3815;SDS011;1923;48.154;11.536;2022-09-24T09:09:20;6.93;;;4.27;;
3815;SDS011;1923;48.154;11.536;2022-09-24T09:11:50;5.87;;;4.53;;
3815;SDS011;1923;48.154;11.536;2022-09-24T09:14:28;5.97;;;4.23;;
3815;SDS011;1923;48.154;11.536;2022-09-24T09:17:11;8.33;;;4.27;;
3815;SDS011;1923;48.154;11.536;2022-09-24T09:19:50;7.20;;;3.90;;
3815;SDS011;1923;48.154;11.536;2022-09-24T09:22:22;8.53;;;4.50;;
3815;SDS011;1923;48.154;11.536;2022-09-24T09:24:54;5.70;;;4.13;;
3815;SDS011;1923;48.154;11.536;2022-09-24T09:27:29;5.23;;;3.90;;
3815;SDS011;1923;48.154;11.536;2022-09-24T09:30:00;7.10;;;4.20;;
3815;SDS011;1923;48.154;11.536;2022-09-24T09:32:41;6.77;;;4.13;;
3815;SDS011;1923;48.154;11.536;2022-09-24T09:35:22;5.40;;;3.13;;
3815;SDS011;1923;48.154;11.536;2022-09-24T09:37:56;3.67;;;3.00;;
3815;SDS011;1923;48.154;11.536;2022-09-24T09:40:32;5.70;;;3.63;;
3815;SDS011;1923;48.154;11.536;2022-09-24T09:43:07;4.20;;;3.10;;
3815;SDS011;1923;48.154;11.536;2022-09-24T09:45:39;6.13;;;3.70;;
3815;SDS011;1923;48.154;11.536;2022-09-24T09:48:13;4.20;;;3.20;;
3815;SDS011;1923;48.154;11.536;2022-09-24T09:50:43;4.90;;;3.60;;
3815;SDS011;1923;48.154;11.536;2022-09-24T09:53:19;4.10;;;3.50;;
3815;SDS011;1923;48.154;11.536;2022-09-24T09:55:52;7.67;;;3.87;;
3815;SDS011;1923;48.154;11.536;2022-09-24T09:58:22;4.07;;;3.67;;
3815;SDS011;1923;48.154;11.536;2022-09-24T10:01:01;6.67;;;3.87;;
3815;SDS011;1923;48.154;11.536;2022-09-24T10:03:32;4.50;;;3.30;;
3815;SDS011;1923;48.154;11.536;2022-09-24T10:06:21;5.83;;;3.40;;
3815;SDS011;1923;48.154;11.536;2022-09-24T10:08:50;4.70;;;3.50;;
3815;SDS011;1923;48.154;11.536;2022-09-24T10:11:18;3.97;;;3.07;;
3815;SDS011;1923;48.154;11.536;2022-09-24T10:13:59;4.70;;;3.90;;
3815;SDS011;1923;48.154;11.536;2022-09-24T10:16:29;5.93;;;3.70;;
3815;SDS011;1923;48.154;11.536;2022-09-24T10:19:02;5.50;;;3.57;;
3815;SDS011;1923;48.154;11.536;2022-09-24T10:21:30;5.03;;;3.50;;
3815;SDS011;1923;48.154;11.536;2022-09-24T10:24:01;5.23;;;3.50;;
3815;SDS011;1923;48.154;11.536;2022-09-24T10:26:34;5.20;;;3.60;;
3815;SDS011;1923;48.154;11.536;2022-09-24T10:29:10;4.97;;;3.20;;
3815;SDS011;1923;48.154;11.536;2022-09-24T10:32:00;4.67;;;3.63;;
3815;SDS011;1923;48.154;11.536;2022-09-24T10:34:28;5.57;;;3.10;;
3815;SDS011;1923;48.154;11.536;2022-09-24T10:36:57;6.30;;;2.90;;
3815;SDS011;1923;48.154;11.536;2022-09-24T10:39:27;4.90;;;3.37;;
3815;SDS011;1923;48.154;11.536;2022-09-24T10:41:56;5.07;;;3.87;;
3815;SDS011;1923;48.154;11.536;2022-09-24T10:44:26;6.40;;;4.00;;
3815;SDS011;1923;48.154;11.536;2022-09-24T10:47:07;6.70;;;3.77;;
3815;SDS011;1923;48.154;11.536;2022-09-24T10:52:43;8.83;;;4.43;;
3815;SDS011;1923;48.154;11.536;2022-09-24T10:55:18;5.60;;;3.90;;
3815;SDS011;1923;48.154;11.536;2022-09-24T10:57:56;8.13;;;4.67;;
3815;SDS011;1923;48.154;11.536;2022-09-24T11:00:31;5.60;;;3.87;;
3815;SDS011;1923;48.154;11.536;2022-09-24T11:06:03;8.20;;;5.07;;
3815;SDS011;1923;48.154;11.536;2022-09-24T11:08:50;7.00;;;4.70;;
3815;SDS011;1923;48.154;11.536;2022-09-24T11:11:29;8.60;;;4.63;;
3815;SDS011;1923;48.154;11.536;2022-09-24T11:14:10;7.63;;;4.90;;
3815;SDS011;1923;48.154;11.536;2022-09-24T11:19:52;7.73;;;5.43;;
3815;SDS011;1923;48.154;11.536;2022-09-24T11:22:43;14.83;;;6.27;;
3815;SDS011;1923;48.154;11.536;2022-09-24T11:25:36;6.90;;;4.50;;
3815;SDS011;1923;48.154;11.536;2022-09-24T11:28:20;6.80;;;4.70;;
3815;SDS011;1923;48.154;11.536;2022-09-24T11:31:01;7.53;;;5.33;;
3815;SDS011;1923;48.154;11.536;2022-09-24T11:33:48;9.20;;;5.50;;
3815;SDS011;1923;48.154;11.536;2022-09-24T11:36:31;9.90;;;5.63;;
3815;SDS011;1923;48.154;11.536;2022-09-24T11:39:14;8.67;;;5.63;;
3815;SDS011;1923;48.154;11.536;2022-09-24T11:41:57;6.23;;;4.43;;
3815;SDS011;1923;48.154;11.536;2022-09-24T11:47:53;8.97;;;5.90;;
3815;SDS011;1923;48.154;11.536;2022-09-24T11:50:47;10.17;;;6.70;;
3815;SDS011;1923;48.154;11.536;2022-09-24T11:53:30;11.93;;;5.53;;
3815;SDS011;1923;48.154;11.536;2022-09-24T11:56:04;8.43;;;5.53;;
3815;SDS011;1923;48.154;11.536;2022-09-24T11:58:39;8.67;;;5.80;;
3815;SDS011;1923;48.154;11.536;2022-09-24T12:01:12;11.10;;;5.57;;
3815;SDS011;1923;48.154;11.536;2022-09-24T12:03:45;7.93;;;5.40;;
3815;SDS011;1923;48.154;11.536;2022-09-24T12:06:19;17.27;;;8.50;;
3815;SDS011;1923;48.154;11.536;2022-09-24T12:08:52;9.40;;;5.67;;
3815;SDS011;1923;48.154;11.536;2022-09-24T12:11:28;7.40;;;5.30;;
3815;SDS011;1923;48.154;11.536;2022-09-24T12:14:02;8.63;;;6.00;;
3815;SDS011;1923;48.154;11.536;2022-09-24T12:16:38;8.40;;;5.20;;
3815;SDS011;1923;48.154;11.536;2022-09-24T12:19:11;7.93;;;5.17;;
3815;SDS011;1923;48.154;11.536;2022-09-24T12:21:45;7.17;;;4.97;;
3815;SDS011;1923;48.154;11.536;2022-09-24T12:24:19;8.30;;;5.20;;
3815;SDS011;1923;48.154;11.536;2022-09-24T12:26:52;7.57;;;5.70;;
3815;SDS011;1923;48.154;11.536;2022-09-24T12:29:32;6.87;;;5.17;;
3815;SDS011;1923;48.154;11.536;2022-09-24T12:32:24;7.10;;;4.93;;
3815;SDS011;1923;48.154;11.536;2022-09-24T12:35:17;9.87;;;5.10;;
3815;SDS011;1923;48.154;11.536;2022-09-24T12:37:54;10.30;;;6.10;;
3815;SDS011;1923;48.154;11.536;2022-09-24T12:43:23;10.13;;;5.80;;
3815;SDS011;1923;48.154;11.536;2022-09-24T12:45:57;7.33;;;5.83;;
3815;SDS011;1923;48.154;11.536;2022-09-24T12:48:28;11.10;;;5.07;;
3815;SDS011;1923;48.154;11.536;2022-09-24T12:51:00;8.17;;;4.80;;
3815;SDS011;1923;48.154;11.536;2022-09-24T12:53:32;14.30;;;6.70;;
3815;SDS011;1923;48.154;11.536;2022-09-24T12:56:03;9.60;;;5.47;;
3815;SDS011;1923;48.154;11.536;2022-09-24T12:58:35;8.43;;;5.40;;
3815;SDS011;1923;48.154;11.536;2022-09-24T13:01:07;7.60;;;4.83;;
3815;SDS011;1923;48.154;11.536;2022-09-24T13:03:39;11.23;;;6.30;;
3815;SDS011;1923;48.154;11.536;2022-09-24T13:06:20;6.30;;;4.10;;
3815;SDS011;1923;48.154;11.536;2022-09-24T13:08:57;6.70;;;5.00;;
3815;SDS011;1923;48.154;11.536;2022-09-24T13:11:31;8.87;;;5.63;;
3815;SDS011;1923;48.154;11.536;2022-09-24T13:14:07;8.93;;;5.97;;
3815;SDS011;1923;48.154;11.536;2022-09-24T13:16:47;8.37;;;5.20;;
3815;SDS011;1923;48.154;11.536;2022-09-24T13:19:22;6.30;;;5.27;;
3815;SDS011;1923;48.154;11.536;2022-09-24T13:21:56;8.37;;;5.37;;
3815;SDS011;1923;48.154;11.536;2022-09-24T13:24:26;7.60;;;5.00;;
3815;SDS011;1923;48.154;11.536;2022-09-24T13:27:08;9.60;;;4.77;;
3815;SDS011;1923;48.154;11.536;2022-09-24T13:29:47;9.80;;;5.30;;
3815;SDS011;1923;48.154;11.536;2022-09-24T13:32:26;8.30;;;4.90;;
3815;SDS011;1923;48.154;11.536;2022-09-24T13:34:57;6.40;;;4.30;;
3815;SDS011;1923;48.154;11.536;2022-09-24T13:37:30;6.53;;;4.80;;
3815;SDS011;1923;48.154;11.536;2022-09-24T13:40:03;5.43;;;4.00;;
3815;SDS011;1923;48.154;11.536;2022-09-24T13:42:44;8.23;;;5.27;;
3815;SDS011;1923;48.154;11.536;2022-09-24T13:45:16;9.20;;;4.90;;
3815;SDS011;1923;48.154;11.536;2022-09-24T13:47:47;10.70;;;6.00;;
3815;SDS011;1923;48.154;11.536;2022-09-24T13:50:19;13.03;;;5.63;;
3815;SDS011;1923;48.154;11.536;2022-09-24T13:52:51;5.77;;;4.10;;
3815;SDS011;1923;48.154;11.536;2022-09-24T13:55:23;18.23;;;8.10;;
3815;SDS011;1923;48.154;11.536;2022-09-24T13:57:58;10.87;;;6.97;;
3815;SDS011;1923;48.154;11.536;2022-09-24T14:00:27;8.70;;;4.77;;
3815;SDS011;1923;48.154;11.536;2022-09-24T14:02:59;9.60;;;5.23;;
3815;SDS011;1923;48.154;11.536;2022-09-24T14:05:29;7.80;;;4.60;;
3815;SDS011;1923;48.154;11.536;2022-09-24T14:08:02;6.20;;;5.23;;
3815;SDS011;1923;48.154;11.536;2022-09-24T14:10:33;4.53;;;3.90;;
3815;SDS011;1923;48.154;11.536;2022-09-24T14:13:06;9.13;;;5.60;;
3815;SDS011;1923;48.154;11.536;2022-09-24T14:15:52;5.00;;;3.87;;
3815;SDS011;1923;48.154;11.536;2022-09-24T14:18:22;5.67;;;4.40;;
3815;SDS011;1923;48.154;11.536;2022-09-24T14:20:53;7.10;;;4.13;;
3815;SDS011;1923;48.154;11.536;2022-09-24T14:23:24;6.50;;;4.87;;
3815;SDS011;1923;48.154;11.536;2022-09-24T14:25:56;7.00;;;5.30;;
3815;SDS011;1923;48.154;11.536;2022-09-24T14:28:27;8.40;;;4.90;;
3815;SDS011;1923;48.154;11.536;2022-09-24T14:30:58;7.10;;;5.40;;
3815;SDS011;1923;48.154;11.536;2022-09-24T14:33:27;11.30;;;6.87;;
3815;SDS011;1923;48.154;11.536;2022-09-24T14:35:58;8.17;;;5.43;;
3815;SDS011;1923;48.154;11.536;2022-09-24T14:38:29;9.03;;;6.07;;
3815;SDS011;1923;48.154;11.536;2022-09-24T14:41:01;8.00;;;5.33;;
3815;SDS011;1923;48.154;11.536;2022-09-24T14:43:37;6.20;;;4.60;;
3815;SDS011;1923;48.154;11.536;2022-09-24T14:46:13;8.60;;;4.67;;
3815;SDS011;1923;48.154;11.536;2022-09-24T14:48:44;19.67;;;6.33;;
3815;SDS011;1923;48.154;11.536;2022-09-24T14:51:25;7.60;;;5.30;;
3815;SDS011;1923;48.154;11.536;2022-09-24T14:53:58;7.77;;;4.73;;
3815;SDS011;1923;48.154;11.536;2022-09-24T14:56:28;8.00;;;4.70;;
3815;SDS011;1923;48.154;11.536;2022-09-24T14:58:59;7.20;;;4.80;;
3815;SDS011;1923;48.154;11.536;2022-09-24T15:01:29;8.70;;;5.30;;
3815;SDS011;1923;48.154;11.536;2022-09-24T15:03:59;10.37;;;5.77;;
3815;SDS011;1923;48.154;11.536;2022-09-24T15:06:30;10.73;;;6.50;;
3815;SDS011;1923;48.154;11.536;2022-09-24T15:09:01;12.10;;;5.63;;
3815;SDS011;1923;48.154;11.536;2022-09-24T15:11:31;10.70;;;6.23;;
3815;SDS011;1923;48.154;11.536;2022-09-24T15:14:11;5.90;;;4.63;;
3815;SDS011;1923;48.154;11.536;2022-09-24T15:16:45;10.70;;;5.60;;
3815;SDS011;1923;48.154;11.536;2022-09-24T15:19:14;7.93;;;5.13;;
3815;SDS011;1923;48.154;11.536;2022-09-24T15:21:45;5.90;;;4.40;;
3815;SDS011;1923;48.154;11.536;2022-09-24T15:24:14;10.17;;;6.50;;
3815;SDS011;1923;48.154;11.536;2022-09-24T15:26:43;8.67;;;5.50;;
3815;SDS011;1923;48.154;11.536;2022-09-24T15:29:16;7.60;;;5.80;;
3815;SDS011;1923;48.154;11.536;2022-09-24T15:31:49;9.67;;;6.10;;
3815;SDS011;1923;48.154;11.536;2022-09-24T15:34:17;10.60;;;5.37;;
3815;SDS011;1923;48.154;11.536;2022-09-24T15:36:46;9.30;;;4.87;;
3815;SDS011;1923;48.154;11.536;2022-09-24T15:39:14;8.50;;;5.27;;
3815;SDS011;1923;48.154;11.536;2022-09-24T15:41:45;7.63;;;5.80;;
3815;SDS011;1923;48.154;11.536;2022-09-24T15:44:17;7.77;;;5.63;;
3815;SDS011;1923;48.154;11.536;2022-09-24T15:46:56;10.37;;;5.60;;
3815;SDS011;1923;48.154;11.536;2022-09-24T15:49:24;8.27;;;5.33;;